Time;durP1;ratioP1;P1;durP2;ratioP2;P2;SDS_P1;SDS_P2;PMS_P1;PMS_P2;Temp;Humidity;BMP_temperature;BMP_pressure;BME280_temperature;BME280_humidity;BME280_pressure;Samples;Min_cycle;Max_cycle;Signal;HPM_P1;HPM_P2
2021/03/20 00:00:28;;;;;;;14.10;9.17;;;-1.60;99.90;;;;;;5091688;28;20521;-75
2021/03/20 00:02:54;;;;;;;14.93;9.57;;;-1.70;99.90;;;;;;5073467;28;20052;-75
2021/03/20 00:05:20;;;;;;;14.57;8.90;;;-1.70;99.90;;;;;;5091564;28;20074;-75
2021/03/20 00:07:46;;;;;;;19.33;9.63;;;-1.80;99.90;;;;;;5091467;28;20073;-74
2021/03/20 00:10:15;;;;;;;13.60;8.77;;;-1.80;99.90;;;;;;5091473;28;20404;-75
2021/03/20 00:12:43;;;;;;;14.10;9.23;;;-1.80;99.90;;;;;;5090811;28;20038;-75
2021/03/20 00:15:10;;;;;;;24.67;12.27;;;-1.80;99.90;;;;;;5076094;28;20500;-75
2021/03/20 00:17:35;;;;;;;14.37;9.30;;;-1.90;99.90;;;;;;5076994;28;20035;-75
2021/03/20 00:20:03;;;;;;;11.60;8.37;;;-1.90;99.90;;;;;;5095617;28;20032;-75
2021/03/20 00:22:30;;;;;;;14.90;9.37;;;-1.90;99.90;;;;;;5095441;28;20090;-75
2021/03/20 00:24:56;;;;;;;13.67;8.83;;;-2.00;99.90;;;;;;5077082;28;20396;-75
2021/03/20 00:27:21;;;;;;;13.70;8.60;;;-2.00;99.90;;;;;;5095523;28;20028;-75
2021/03/20 00:29:47;;;;;;;14.90;8.97;;;-2.00;99.90;;;;;;5095375;28;20092;-75
2021/03/20 00:32:12;;;;;;;10.80;7.80;;;-2.00;99.90;;;;;;5095417;28;20028;-75
2021/03/20 00:34:39;;;;;;;12.77;8.73;;;-2.00;99.90;;;;;;5095007;28;20020;-75
2021/03/20 00:37:04;;;;;;;10.27;8.30;;;-2.00;99.90;;;;;;5093761;28;20031;-75
2021/03/20 00:39:30;;;;;;;11.57;8.63;;;-2.00;99.90;;;;;;5093584;28;20020;-75
2021/03/20 00:41:55;;;;;;;12.13;8.50;;;-2.00;99.90;;;;;;5093603;28;20024;-75
2021/03/20 00:44:21;;;;;;;12.37;8.97;;;-2.00;99.90;;;;;;5094830;28;20027;-75
2021/03/20 00:46:46;;;;;;;11.63;8.50;;;-2.00;99.90;;;;;;5094548;28;20060;-76
2021/03/20 00:49:12;;;;;;;13.10;8.50;;;-1.90;99.90;;;;;;5094838;28;20028;-75
2021/03/20 00:51:37;;;;;;;14.40;9.53;;;-1.90;99.90;;;;;;5095120;28;20376;-75
2021/03/20 00:54:03;;;;;;;10.53;8.10;;;-1.90;99.90;;;;;;5076531;28;20016;-75
2021/03/20 00:56:29;;;;;;;11.80;7.90;;;-1.90;99.90;;;;;;5095054;28;20055;-75
2021/03/20 00:58:54;;;;;;;14.47;9.23;;;-1.90;99.90;;;;;;5076790;28;20254;-75
2021/03/20 01:01:22;;;;;;;13.37;9.10;;;-1.90;99.90;;;;;;5095020;28;20024;-75
2021/03/20 01:03:48;;;;;;;11.83;8.73;;;-2.00;99.90;;;;;;5094880;28;20040;-76
2021/03/20 01:06:25;;;;;;;12.70;8.70;;;-2.00;99.90;;;;;;5094876;28;20050;-75
2021/03/20 01:08:52;;;;;;;14.70;9.23;;;-2.00;99.90;;;;;;5095066;28;20088;-75
2021/03/20 01:11:18;;;;;;;13.63;9.00;;;-2.00;99.90;;;;;;5094890;28;20028;-75
2021/03/20 01:13:44;;;;;;;14.20;9.53;;;-2.10;99.90;;;;;;5076715;28;20038;-75
2021/03/20 01:16:11;;;;;;;12.23;8.80;;;-2.20;99.90;;;;;;5094121;28;20024;-76
2021/03/20 01:18:38;;;;;;;12.00;8.43;;;-2.20;99.90;;;;;;5093089;28;20464;-75
2021/03/20 01:21:05;;;;;;;15.03;9.10;;;-2.20;99.90;;;;;;5094510;28;20043;-75
2021/03/20 01:23:31;;;;;;;12.13;8.50;;;-2.30;99.90;;;;;;5094576;28;20054;-75
2021/03/20 01:25:56;;;;;;;12.97;9.03;;;-2.30;99.90;;;;;;5075327;28;20122;-75
2021/03/20 01:28:26;;;;;;;15.50;9.50;;;-2.40;99.90;;;;;;5094679;28;20125;-76
2021/03/20 01:30:52;;;;;;;12.77;8.70;;;-2.40;99.90;;;;;;5094738;28;20028;-76
2021/03/20 01:33:18;;;;;;;15.83;8.80;;;-2.40;99.90;;;;;;5094397;28;20034;-76
2021/03/20 01:35:44;;;;;;;15.13;9.50;;;-2.50;99.90;;;;;;5094565;28;20024;-76
2021/03/20 01:38:10;;;;;;;13.10;8.80;;;-2.50;99.90;;;;;;5076278;28;20029;-76
2021/03/20 01:40:45;;;;;;;15.23;10.43;;;-2.50;99.90;;;;;;5080197;28;20053;-76
2021/03/20 01:43:16;;;;;;;16.17;9.50;;;-2.60;99.90;;;;;;5094457;28;20074;-76
2021/03/20 01:45:42;;;;;;;14.30;9.90;;;-2.60;99.90;;;;;;5094497;28;20036;-76
2021/03/20 01:48:20;;;;;;;16.50;9.93;;;-2.60;99.90;;;;;;5094268;28;20036;-75
2021/03/20 01:50:56;;;;;;;16.50;10.67;;;-2.70;99.90;;;;;;5094340;28;20024;-76
2021/03/20 01:53:55;;;;;;;15.80;11.13;;;-2.70;99.90;;;;;;5093808;28;20020;-75
2021/03/20 01:56:23;;;;;;;16.27;9.77;;;-2.70;99.90;;;;;;5082337;28;20360;-76
2021/03/20 01:58:52;;;;;;;16.00;10.27;;;-2.70;99.90;;;;;;5075688;28;20062;-76
2021/03/20 02:01:23;;;;;;;17.13;10.27;;;-2.80;99.90;;;;;;5094104;28;20016;-75
2021/03/20 02:03:50;;;;;;;17.77;11.33;;;-2.80;99.90;;;;;;5093736;28;20416;-76
2021/03/20 02:06:17;;;;;;;17.77;10.53;;;-2.80;99.90;;;;;;5093839;28;20020;-76
2021/03/20 02:08:44;;;;;;;16.73;10.00;;;-2.80;99.90;;;;;;5093846;28;20477;-75
2021/03/20 02:11:28;;;;;;;14.93;9.53;;;-2.70;99.90;;;;;;5093102;28;20028;-76
2021/03/20 02:14:06;;;;;;;14.13;10.03;;;-2.70;99.90;;;;;;5093536;28;20024;-75
2021/03/20 02:17:00;;;;;;;18.80;10.73;;;-2.70;99.90;;;;;;5093825;28;20059;-75
2021/03/20 02:19:53;;;;;;;17.87;10.67;;;-2.70;99.90;;;;;;5093596;28;20392;-75
2021/03/20 02:22:30;;;;;;;16.73;10.40;;;-2.60;99.90;;;;;;5083013;28;20023;-75
2021/03/20 02:25:17;;;;;;;16.10;10.00;;;-2.60;99.90;;;;;;5093232;28;20373;-76
2021/03/20 02:28:07;;;;;;;17.47;9.83;;;-2.50;99.90;;;;;;5093466;28;20024;-76
2021/03/20 02:30:50;;;;;;;16.80;10.10;;;-2.50;99.90;;;;;;5080821;28;20474;-76
2021/03/20 02:33:33;;;;;;;15.37;9.77;;;-2.50;99.90;;;;;;5093022;28;20028;-76
2021/03/20 02:36:28;;;;;;;15.00;9.80;;;-2.40;99.90;;;;;;5065580;28;20418;-76
2021/03/20 02:38:58;;;;;;;11.47;7.23;;;-2.30;99.90;;;;;;5079060;28;20031;-76
2021/03/20 02:41:40;;;;;;;12.67;8.13;;;-2.30;99.90;;;;;;5075053;28;20294;-76
2021/03/20 02:44:18;;;;;;;16.53;9.00;;;-2.20;99.90;;;;;;5078965;28;20052;-76
2021/03/20 02:46:59;;;;;;;13.77;8.50;;;-2.20;99.90;;;;;;5091206;28;20376;-76
2021/03/20 02:49:32;;;;;;;13.37;8.60;;;-2.10;99.90;;;;;;5091895;28;20032;-76
2021/03/20 02:52:07;;;;;;;14.13;8.53;;;-2.10;99.90;;;;;;5092448;28;20055;-76
2021/03/20 02:54:56;;;;;;;11.87;7.70;;;-2.10;99.90;;;;;;5092413;28;20786;-75
2021/03/20 02:57:32;;;;;;;12.23;8.00;;;-2.00;99.90;;;;;;5092112;28;20051;-76
2021/03/20 03:00:06;;;;;;;11.20;7.60;;;-2.00;99.90;;;;;;5092855;28;20031;-76
2021/03/20 03:02:34;;;;;;;10.40;7.53;;;-2.00;99.90;;;;;;5092332;28;20066;-75
2021/03/20 03:05:05;;;;;;;12.83;7.83;;;-2.00;99.90;;;;;;5092911;28;20040;-76
2021/03/20 03:07:40;;;;;;;12.13;7.50;;;-2.00;99.90;;;;;;5088974;28;20390;-76
2021/03/20 03:10:05;;;;;;;11.05;6.93;;;-2.00;99.90;;;;;;5083168;28;20040;-76
2021/03/20 03:12:37;;;;;;;10.93;7.03;;;-2.00;99.90;;;;;;5077982;28;20034;-76
2021/03/20 03:15:08;;;;;;;11.10;7.67;;;-1.90;99.90;;;;;;5088744;28;20040;-76
2021/03/20 03:17:39;;;;;;;12.77;8.17;;;-1.90;99.90;;;;;;5092517;28;20039;-76
2021/03/20 03:20:08;;;;;;;11.43;7.60;;;-1.90;99.90;;;;;;5092619;28;20174;-76
2021/03/20 03:22:41;;;;;;;12.80;7.00;;;-1.90;99.90;;;;;;5092458;28;20027;-76
2021/03/20 03:25:10;;;;;;;10.73;7.33;;;-1.90;99.90;;;;;;5074052;28;20059;-76
2021/03/20 03:27:38;;;;;;;10.50;6.90;;;-1.80;99.90;;;;;;5073043;28;20118;-76
2021/03/20 03:30:11;;;;;;;10.23;6.40;;;-1.80;99.90;;;;;;5092248;28;20055;-76
2021/03/20 03:32:46;;;;;;;10.03;7.23;;;-1.80;99.90;;;;;;5092512;28;20024;-76
2021/03/20 03:35:14;;;;;;;10.38;6.93;;;-1.80;99.90;;;;;;5074341;28;20362;-76
2021/03/20 03:37:59;;;;;;;12.17;7.83;;;-1.80;99.90;;;;;;5092187;28;20035;-76
2021/03/20 03:40:36;;;;;;;12.33;7.43;;;-1.80;99.90;;;;;;5092005;28;20063;-76
2021/03/20 03:43:02;;;;;;;11.07;6.80;;;-1.80;99.90;;;;;;5078955;28;20537;-76
2021/03/20 03:45:28;;;;;;;9.20;6.67;;;-1.80;99.90;;;;;;5091433;28;20020;-76
2021/03/20 03:47:56;;;;;;;10.70;7.03;;;-1.70;99.90;;;;;;5091844;28;20032;-76
2021/03/20 03:50:29;;;;;;;10.07;6.70;;;-1.80;99.90;;;;;;5091619;28;20024;-76
2021/03/20 03:52:55;;;;;;;11.33;6.73;;;-1.70;99.90;;;;;;5087772;28;20085;-76
2021/03/20 03:55:21;;;;;;;9.83;7.03;;;-1.70;99.90;;;;;;5064064;28;20028;-76
2021/03/20 03:58:05;;;;;;;11.13;7.20;;;-1.70;99.90;;;;;;5077994;28;20020;-76
2021/03/20 04:00:38;;;;;;;9.53;6.50;;;-1.70;99.90;;;;;;5091640;28;20024;-76
2021/03/20 04:03:31;;;;;;;10.83;7.00;;;-1.70;99.90;;;;;;5092003;28;20130;-76
2021/03/20 04:06:31;;;;;;;11.83;6.53;;;-1.70;99.90;;;;;;5080778;28;20032;-76
2021/03/20 04:09:31;;;;;;;9.73;6.10;;;-1.70;99.90;;;;;;5073842;28;20063;-76
2021/03/20 04:12:09;;;;;;;12.33;7.07;;;-1.70;99.90;;;;;;5083445;28;20055;-76
2021/03/20 04:14:55;;;;;;;10.03;6.63;;;-1.70;99.90;;;;;;5086065;28;20032;-76
2021/03/20 04:17:27;;;;;;;10.77;7.25;;;-1.80;99.90;;;;;;5079444;28;20396;-75
2021/03/20 04:20:19;;;;;;;11.70;7.63;;;-1.80;99.90;;;;;;5091903;28;20028;-76
2021/03/20 04:22:47;;;;;;;11.40;6.90;;;-1.80;99.90;;;;;;5087456;28;20052;-75
2021/03/20 04:25:23;;;;;;;9.13;6.73;;;-1.80;99.90;;;;;;5091925;28;20012;-76
2021/03/20 04:27:57;;;;;;;8.93;6.80;;;-1.80;99.90;;;;;;5092010;28;20024;-76
2021/03/20 04:30:27;;;;;;;10.07;6.53;;;-1.80;99.90;;;;;;5091618;28;20020;-75
2021/03/20 04:33:16;;;;;;;9.10;6.37;;;-1.80;99.90;;;;;;5092017;28;20030;-76
2021/03/20 04:35:55;;;;;;;11.13;6.77;;;-1.80;99.90;;;;;;5091179;28;20499;-76
2021/03/20 04:38:22;;;;;;;10.47;7.07;;;-1.90;99.90;;;;;;5091484;28;20656;-76
2021/03/20 04:40:51;;;;;;;11.00;6.67;;;-1.80;99.90;;;;;;5091718;28;20016;-76
2021/03/20 04:43:21;;;;;;;12.13;7.50;;;-1.80;99.90;;;;;;5092064;28;20066;-76
2021/03/20 04:46:04;;;;;;;11.80;7.63;;;-1.90;99.90;;;;;;5075667;28;20021;-76
2021/03/20 04:48:34;;;;;;;9.37;6.47;;;-1.90;99.90;;;;;;5091731;28;20020;-76
2021/03/20 04:51:03;;;;;;;10.97;6.90;;;-1.90;99.90;;;;;;5075403;28;20730;-76
2021/03/20 04:53:28;;;;;;;10.43;7.00;;;-1.80;99.90;;;;;;5091836;28;20024;-75
2021/03/20 04:55:59;;;;;;;9.07;6.43;;;-1.90;99.90;;;;;;5091167;28;20024;-75
2021/03/20 04:58:45;;;;;;;10.80;6.27;;;-1.80;99.90;;;;;;5091392;28;20032;-76
2021/03/20 05:01:31;;;;;;;10.00;6.70;;;-1.80;99.90;;;;;;5088583;28;20016;-76
2021/03/20 05:04:01;;;;;;;9.87;7.10;;;-1.80;99.90;;;;;;5081277;28;20044;-76
2021/03/20 05:06:27;;;;;;;7.53;5.87;;;-1.80;99.90;;;;;;5093277;28;20495;-74
2021/03/20 05:08:57;;;;;;;10.23;6.43;;;-1.80;99.90;;;;;;5074994;28;20447;-74
2021/03/20 05:11:31;;;;;;;9.50;6.20;;;-1.80;99.90;;;;;;5074871;28;20024;-74
2021/03/20 05:14:05;;;;;;;9.10;5.93;;;-1.80;99.90;;;;;;5092907;28;20028;-77
2021/03/20 05:16:50;;;;;;;8.43;5.70;;;-1.80;99.90;;;;;;5092900;28;20024;-75
2021/03/20 05:19:17;;;;;;;9.90;6.22;;;-1.80;99.90;;;;;;5074629;28;20437;-74
2021/03/20 05:21:45;;;;;;;9.17;6.27;;;-1.90;99.90;;;;;;5074264;28;20081;-75
2021/03/20 05:24:20;;;;;;;9.80;6.47;;;-1.90;99.90;;;;;;5092822;28;20103;-75
2021/03/20 05:26:46;;;;;;;7.95;5.03;;;-1.90;99.90;;;;;;5092723;28;20024;-75
2021/03/20 05:29:12;;;;;;;8.17;6.20;;;-1.80;99.90;;;;;;5092832;28;20028;-75
2021/03/20 05:31:38;;;;;;;9.57;6.20;;;-1.80;99.90;;;;;;5081705;28;20031;-75
2021/03/20 05:34:24;;;;;;;10.30;6.40;;;-1.90;99.90;;;;;;5092546;28;20043;-75
2021/03/20 05:36:51;;;;;;;8.17;5.90;;;-1.80;99.90;;;;;;5092344;28;20501;-76
2021/03/20 05:39:17;;;;;;;6.60;4.90;;;-1.80;99.90;;;;;;5092541;28;20098;-75
2021/03/20 05:41:58;;;;;;;7.47;4.10;;;-1.80;99.90;;;;;;5092627;28;20353;-75
2021/03/20 05:44:42;;;;;;;5.67;4.40;;;-1.80;99.90;;;;;;5074299;28;20085;-75
2021/03/20 05:47:16;;;;;;;7.07;4.10;;;-1.90;99.90;;;;;;5074268;28;20073;-75
2021/03/20 05:49:42;;;;;;;6.63;4.50;;;-1.90;99.90;;;;;;5092500;28;20012;-75
2021/03/20 05:52:23;;;;;;;5.13;3.90;;;-1.90;99.90;;;;;;5073661;28;20024;-72
2021/03/20 05:55:13;;;;;;;5.60;3.60;;;-2.00;99.90;;;;;;5090420;28;20093;-75
2021/03/20 05:57:57;;;;;;;5.27;3.90;;;-1.90;99.90;;;;;;5072981;28;20425;-75
2021/03/20 06:00:49;;;;;;;5.73;4.17;;;-1.90;99.90;;;;;;5089910;28;20020;-75
2021/03/20 06:03:30;;;;;;;5.27;4.00;;;-1.90;99.90;;;;;;5090266;28;20397;-74
2021/03/20 06:06:25;;;;;;;7.43;4.03;;;-2.00;99.90;;;;;;5087153;28;20344;-74
2021/03/20 06:09:18;;;;;;;6.63;4.40;;;-2.00;99.90;;;;;;5074625;28;20040;-75
2021/03/20 06:11:54;;;;;;;6.13;3.70;;;-2.10;99.90;;;;;;5087540;28;20012;-75
2021/03/20 06:14:47;;;;;;;6.63;4.30;;;-2.10;99.90;;;;;;5073129;28;20483;-74
2021/03/20 06:18:01;;;;;;;6.50;4.53;;;-2.20;99.90;;;;;;5087741;28;20061;-74
2021/03/20 06:20:44;;;;;;;6.67;4.37;;;-2.30;99.90;;;;;;5081349;28;20043;-75
2021/03/20 06:23:40;;;;;;;7.67;5.37;;;-2.20;99.90;;;;;;5087759;28;20065;-75
2021/03/20 06:26:36;;;;;;;7.03;5.33;;;-2.30;99.90;;;;;;5070245;28;20495;-75
2021/03/20 06:29:23;;;;;;;6.40;4.65;;;-2.30;99.90;;;;;;5084978;28;20032;-74
2021/03/20 06:31:54;;;;;;;7.00;5.23;;;-2.30;99.90;;;;;;5072749;28;20433;-75
2021/03/20 06:34:31;;;;;;;6.57;4.37;;;-2.20;99.90;;;;;;5073017;28;20151;-74
2021/03/20 06:37:14;;;;;;;8.40;5.07;;;-2.20;99.90;;;;;;5090695;28;20382;-74
2021/03/20 06:39:58;;;;;;;6.63;4.47;;;-2.10;99.90;;;;;;5090456;28;20769;-74
2021/03/20 06:42:28;;;;;;;7.97;5.07;;;-1.90;99.90;;;;;;5080479;28;20028;-73
2021/03/20 06:45:16;;;;;;;5.47;4.17;;;-1.90;99.90;;;;;;5084892;28;20028;-73
2021/03/20 06:47:46;;;;;;;7.93;4.23;;;-1.80;99.90;;;;;;5075421;28;20468;-73
2021/03/20 06:50:33;;;;;;;6.53;4.63;;;-1.70;99.90;;;;;;5088149;28;20028;-73
2021/03/20 06:53:08;;;;;;;6.40;4.30;;;-1.80;99.90;;;;;;5087926;28;20036;-73
2021/03/20 06:55:40;;;;;;;6.87;4.93;;;-1.70;99.90;;;;;;5091526;28;20105;-76
2021/03/20 06:58:25;;;;;;;6.00;4.70;;;-1.80;99.90;;;;;;5090216;28;20111;-75
2021/03/20 07:00:50;;;;;;;5.57;4.10;;;-1.80;99.90;;;;;;5073255;28;20078;-75
2021/03/20 07:03:34;;;;;;;5.77;4.40;;;-1.80;99.90;;;;;;5075748;28;20075;-90
2021/03/20 07:06:30;;;;;;;5.63;4.30;;;-1.70;99.90;;;;;;5065108;28;20092;-80
2021/03/20 07:08:58;;;;;;;6.47;4.67;;;-1.70;99.90;;;;;;5075296;28;20055;-72
2021/03/20 07:11:38;;;;;;;7.17;4.63;;;-1.60;99.90;;;;;;5076228;28;20024;-72
2021/03/20 07:14:07;;;;;;;5.27;4.37;;;-1.60;99.90;;;;;;5075448;28;20412;-73
2021/03/20 07:16:59;;;;;;;6.00;4.77;;;-1.60;99.90;;;;;;5088563;28;20422;-73
2021/03/20 07:19:26;;;;;;;7.13;4.97;;;-1.60;99.90;;;;;;5083653;28;20081;-73
2021/03/20 07:21:57;;;;;;;6.43;4.67;;;-1.70;99.90;;;;;;5079001;28;20033;-73
2021/03/20 07:24:43;;;;;;;32.13;12.13;;;-1.60;99.90;;;;;;5081003;28;20100;-73
2021/03/20 07:27:14;;;;;;;11.50;5.73;;;-1.60;99.90;;;;;;5083074;28;20372;-73
2021/03/20 07:30:08;;;;;;;26.20;9.80;;;-1.50;99.90;;;;;;5062114;28;20491;-73
2021/03/20 07:32:40;;;;;;;14.50;7.67;;;-1.50;99.90;;;;;;5083390;28;20020;-73
2021/03/20 07:35:21;;;;;;;57.27;23.73;;;-1.50;99.90;;;;;;5088191;28;20078;-73
2021/03/20 07:37:48;;;;;;;8.80;5.70;;;-1.50;99.90;;;;;;5082126;28;20103;-73
2021/03/20 07:40:30;;;;;;;9.93;5.23;;;-1.40;99.90;;;;;;5077306;28;20029;-73
2021/03/20 07:43:14;;;;;;;6.77;4.73;;;-1.30;99.90;;;;;;5090592;28;20844;-73
2021/03/20 07:45:40;;;;;;;10.90;6.63;;;-1.30;99.90;;;;;;5090020;28;20020;-72
2021/03/20 07:48:25;;;;;;;7.07;4.53;;;-1.30;99.90;;;;;;5090147;28;20055;-72
2021/03/20 07:51:18;;;;;;;6.00;4.67;;;-1.30;99.90;;;;;;5089646;28;20407;-76
2021/03/20 07:53:51;;;;;;;7.50;5.53;;;-1.20;99.90;;;;;;5090765;28;20345;-89
2021/03/20 07:56:45;;;;;;;6.53;5.43;;;-1.10;99.90;;;;;;5076410;28;20452;-76
2021/03/20 07:59:30;;;;;;;6.57;4.83;;;-1.00;99.90;;;;;;5086601;28;20393;-76
2021/03/20 08:01:58;;;;;;;5.97;4.23;;;-0.90;99.90;;;;;;5089746;28;20202;-76
2021/03/20 08:04:48;;;;;;;10.97;6.13;;;-0.90;99.90;;;;;;5090416;28;20102;-75
2021/03/20 08:07:30;;;;;;;10.90;5.17;;;-0.90;99.90;;;;;;5091921;28;20031;-75
2021/03/20 08:10:19;;;;;;;6.53;4.20;;;-0.90;99.90;;;;;;5091726;28;20036;-75
2021/03/20 08:13:00;;;;;;;6.70;4.97;;;-0.80;99.90;;;;;;5088517;28;20031;-73
2021/03/20 08:15:30;;;;;;;5.60;4.40;;;-0.70;99.90;;;;;;5058494;28;20173;-72
2021/03/20 08:17:58;;;;;;;6.90;4.33;;;-0.70;99.90;;;;;;5079957;28;20029;-71
2021/03/20 08:20:24;;;;;;;5.83;4.30;;;-0.60;99.90;;;;;;5090108;28;20032;-73
2021/03/20 08:23:03;;;;;;;5.87;4.90;;;-0.50;99.90;;;;;;5090759;28;20028;-73
2021/03/20 08:25:28;;;;;;;7.77;4.60;;;-0.40;99.90;;;;;;5071743;28;20111;-71
2021/03/20 08:28:22;;;;;;;8.07;4.40;;;-0.30;99.90;;;;;;5085799;28;20033;-73
2021/03/20 08:31:20;;;;;;;6.00;4.67;;;-0.30;99.90;;;;;;5080690;28;20052;-72
2021/03/20 08:34:05;;;;;;;5.77;4.07;;;-0.30;99.90;;;;;;5084227;28;20504;-72
2021/03/20 08:36:34;;;;;;;5.70;4.65;;;-0.30;99.90;;;;;;5083106;28;20031;-72
2021/03/20 08:39:07;;;;;;;5.77;4.57;;;-0.30;99.90;;;;;;5064171;28;20440;-76
2021/03/20 08:41:44;;;;;;;7.53;5.30;;;-0.20;99.90;;;;;;5095879;28;20020;-77
2021/03/20 08:44:22;;;;;;;6.40;4.10;;;-0.30;99.90;;;;;;5088478;28;20016;-72
2021/03/20 08:46:59;;;;;;;10.00;5.00;;;-0.40;99.90;;;;;;5095524;28;20024;-77
2021/03/20 08:50:09;;;;;;;7.10;4.60;;;-0.60;99.90;;;;;;5077329;28;20135;-77
2021/03/20 08:53:00;;;;;;;8.30;4.90;;;-0.80;99.90;;;;;;5092727;28;20030;-78
2021/03/20 08:55:54;;;;;;;7.63;5.40;;;-0.60;99.90;;;;;;5082462;28;20397;-77
2021/03/20 08:58:29;;;;;;;7.77;4.57;;;-0.40;99.90;;;;;;5057734;28;20033;-77
2021/03/20 09:01:11;;;;;;;5.30;4.00;;;-0.10;99.90;;;;;;5075740;28;20099;-77
2021/03/20 09:03:51;;;;;;;14.57;8.30;;;0.10;99.90;;;;;;5084891;28;20048;-78
2021/03/20 09:06:39;;;;;;;32.87;16.70;;;0.30;99.90;;;;;;5089060;28;20388;-84
2021/03/20 09:09:27;;;;;;;6.17;4.67;;;0.30;99.90;;;;;;5091682;28;20024;-74
2021/03/20 09:11:59;;;;;;;5.00;3.97;;;0.30;99.90;;;;;;5096163;28;20020;-73
2021/03/20 09:14:30;;;;;;;6.30;4.33;;;0.10;99.90;;;;;;5077382;28;20383;-73
2021/03/20 09:17:01;;;;;;;6.20;4.60;;;0.10;99.90;;;;;;5096108;28;20090;-74
2021/03/20 09:19:40;;;;;;;6.10;4.50;;;0.10;99.90;;;;;;5095771;28;20024;-75
2021/03/20 09:22:12;;;;;;;6.43;3.80;;;0.10;99.90;;;;;;5095973;28;20153;-74
2021/03/20 09:24:49;;;;;;;6.60;4.67;;;0.10;99.90;;;;;;5096535;28;20528;-75
2021/03/20 09:27:52;;;;;;;6.67;4.03;;;0.10;99.90;;;;;;5096525;28;20468;-75
2021/03/20 09:30:28;;;;;;;4.90;4.10;;;0.10;99.90;;;;;;5096700;28;20099;-74
2021/03/20 09:32:54;;;;;;;7.87;5.27;;;0.10;99.90;;;;;;5096917;28;20488;-75
2021/03/20 09:35:35;;;;;;;7.77;4.83;;;0.10;99.90;;;;;;5096373;28;20024;-73
2021/03/20 09:38:02;;;;;;;6.17;4.37;;;0.10;99.90;;;;;;5085975;28;20081;-73
2021/03/20 09:41:01;;;;;;;6.57;4.83;;;0.20;99.90;;;;;;5073188;28;20031;-76
2021/03/20 09:43:36;;;;;;;10.80;6.83;;;0.20;99.90;;;;;;5058454;28;20437;-72
2021/03/20 09:46:34;;;;;;;10.02;6.47;;;0.20;99.90;;;;;;5073430;28;20046;-72
2021/03/20 09:49:00;;;;;;;21.07;11.03;;;0.50;99.90;;;;;;5092647;28;20051;-76
2021/03/20 09:51:47;;;;;;;29.87;14.30;;;0.60;99.90;;;;;;5089406;28;20070;-75
2021/03/20 09:54:33;;;;;;;10.83;6.23;;;0.60;99.90;;;;;;5088556;28;20028;-76
2021/03/20 09:57:38;;;;;;;8.85;7.10;;;0.50;99.90;;;;;;5091175;28;20038;-74
2021/03/20 10:00:04;;;;;;;7.97;5.13;;;0.40;99.90;;;;;;5089540;28;20036;-74
2021/03/20 10:02:30;;;;;;;6.30;5.00;;;0.30;99.90;;;;;;5089028;28;20406;-79
2021/03/20 10:05:23;;;;;;;7.90;5.27;;;0.20;99.90;;;;;;5090200;28;20031;-79
2021/03/20 10:08:17;;;;;;;7.93;6.13;;;0.10;99.90;;;;;;5090014;28;20028;-67
2021/03/20 10:10:46;;;;;;;10.43;6.00;;;0.10;99.90;;;;;;5091801;28;20153;-67
2021/03/20 10:13:21;;;;;;;6.60;4.83;;;0.30;99.90;;;;;;5091798;28;20399;-79
2021/03/20 10:16:00;;;;;;;6.38;5.05;;;0.50;99.90;;;;;;5094262;28;20020;-78
2021/03/20 10:18:31;;;;;;;6.83;5.20;;;0.60;99.90;;;;;;5094698;28;20036;-78
2021/03/20 10:21:01;;;;;;;6.97;5.63;;;0.60;99.90;;;;;;5076389;28;20020;-78
2021/03/20 10:23:59;;;;;;;10.00;5.17;;;0.60;99.90;;;;;;5094443;28;20025;-78
2021/03/20 10:26:47;;;;;;;6.57;4.63;;;0.80;99.90;;;;;;5080795;28;20507;-78
2021/03/20 10:29:18;;;;;;;5.37;4.67;;;1.20;99.90;;;;;;5082804;28;20036;-77
2021/03/20 10:31:49;;;;;;;5.43;4.30;;;1.30;99.90;;;;;;5092568;28;20031;-78
2021/03/20 10:34:19;;;;;;;5.83;4.50;;;1.30;99.90;;;;;;5094600;28;20056;-78
2021/03/20 10:37:00;;;;;;;9.20;6.20;;;1.10;99.90;;;;;;5094229;28;20031;-78
2021/03/20 10:39:36;;;;;;;8.13;6.30;;;0.90;99.90;;;;;;5075876;28;20020;-78
2021/03/20 10:42:07;;;;;;;11.57;8.17;;;0.80;99.90;;;;;;5094039;28;20030;-78
2021/03/20 10:44:38;;;;;;;10.53;7.50;;;0.60;99.90;;;;;;5067964;28;20477;-78
2021/03/20 10:47:20;;;;;;;7.80;6.40;;;0.40;99.90;;;;;;5073645;28;20323;-78
2021/03/20 10:49:58;;;;;;;7.17;6.43;;;0.20;99.90;;;;;;5085290;28;20028;-76
2021/03/20 10:52:39;;;;;;;9.17;6.93;;;0.10;99.90;;;;;;5080681;28;20043;-76
2021/03/20 10:55:22;;;;;;;6.73;5.93;;;0.10;99.90;;;;;;5074087;28;20051;-76
2021/03/20 10:57:49;;;;;;;7.43;5.60;;;0.00;99.90;;;;;;5092136;28;20141;-75
2021/03/20 11:00:26;;;;;;;6.73;5.43;;;0.00;99.90;;;;;;5092392;28;20016;-73
2021/03/20 11:02:52;;;;;;;6.77;5.60;;;0.00;99.90;;;;;;5086060;28;20044;-82
2021/03/20 11:05:20;;;;;;;7.23;5.50;;;0.00;99.90;;;;;;5083851;28;20031;-76
2021/03/20 11:07:56;;;;;;;8.47;6.00;;;0.10;99.90;;;;;;5085295;28;20024;-76
2021/03/20 11:10:38;;;;;;;10.87;6.63;;;0.40;99.90;;;;;;5068915;28;20075;-77
2021/03/20 11:13:08;;;;;;;6.67;5.13;;;0.70;99.90;;;;;;5086719;28;20365;-76
2021/03/20 11:15:37;;;;;;;7.60;5.73;;;0.90;99.90;;;;;;5093367;28;20032;-76
2021/03/20 11:18:13;;;;;;;7.07;4.93;;;1.00;99.90;;;;;;5093216;28;20486;-76
2021/03/20 11:20:41;;;;;;;6.67;4.87;;;1.00;99.90;;;;;;5075052;28;20019;-75
2021/03/20 11:23:26;;;;;;;7.13;5.87;;;0.80;99.90;;;;;;5074220;28;20032;-76
2021/03/20 11:25:52;;;;;;;5.10;4.38;;;0.80;99.90;;;;;;5093163;28;20023;-76
2021/03/20 11:28:34;;;;;;;9.47;5.97;;;0.70;99.90;;;;;;5075518;28;20028;-78
2021/03/20 11:31:02;;;;;;;6.53;5.83;;;0.70;99.90;;;;;;5075082;28;20057;-79
2021/03/20 11:33:30;;;;;;;7.77;5.20;;;0.80;99.90;;;;;;5096745;28;20020;-79
2021/03/20 11:36:00;;;;;;;6.60;5.00;;;0.70;99.90;;;;;;5096699;28;20036;-79
2021/03/20 11:38:26;;;;;;;5.27;4.73;;;0.80;99.90;;;;;;5079721;28;20028;-79
2021/03/20 11:40:55;;;;;;;6.63;5.13;;;0.90;99.90;;;;;;5085606;28;20077;-73
2021/03/20 11:43:28;;;;;;;7.00;4.47;;;1.00;99.90;;;;;;5085958;28;20020;-73
2021/03/20 11:46:06;;;;;;;6.60;5.07;;;1.00;99.90;;;;;;5082732;28;20024;-73
2021/03/20 11:48:35;;;;;;;7.70;5.40;;;1.00;99.90;;;;;;5085712;28;20028;-76
2021/03/20 11:51:05;;;;;;;6.43;4.80;;;1.10;99.90;;;;;;5074176;28;20020;-77
2021/03/20 11:53:42;;;;;;;6.60;4.90;;;1.10;99.90;;;;;;5084629;28;20024;-74
2021/03/20 11:56:21;;;;;;;8.47;4.83;;;1.10;99.90;;;;;;5085948;28;20031;-74
2021/03/20 11:59:03;;;;;;;5.67;4.30;;;1.20;99.90;;;;;;5067326;28;20741;-74
2021/03/20 12:01:31;;;;;;;6.30;4.63;;;1.30;99.90;;;;;;5068636;28;20032;-74
2021/03/20 12:04:00;;;;;;;5.40;4.70;;;1.20;99.90;;;;;;5082929;28;20090;-74
2021/03/20 12:06:32;;;;;;;5.50;4.43;;;1.30;99.90;;;;;;5085855;28;20024;-74
2021/03/20 12:09:04;;;;;;;6.47;4.13;;;1.50;99.90;;;;;;5081713;28;20028;-74
2021/03/20 12:11:46;;;;;;;6.17;4.40;;;1.60;99.90;;;;;;5094650;28;20097;-74
2021/03/20 12:14:32;;;;;;;7.03;5.53;;;1.80;99.90;;;;;;5096684;28;20077;-80
2021/03/20 12:17:10;;;;;;;5.57;4.70;;;2.00;99.90;;;;;;5097030;28;20372;-74
2021/03/20 12:19:58;;;;;;;6.70;4.47;;;2.00;99.90;;;;;;5091375;28;20035;-76
2021/03/20 12:22:52;;;;;;;6.13;4.63;;;1.90;99.90;;;;;;5070345;28;20098;-76
2021/03/20 12:25:35;;;;;;;5.50;4.37;;;1.80;99.90;;;;;;5084536;28;20090;-76
2021/03/20 12:28:38;;;;;;;7.30;3.93;;;1.90;99.90;;;;;;5094965;28;20044;-74
2021/03/20 12:31:23;;;;;;;5.73;4.43;;;2.00;99.90;;;;;;5075218;28;20104;-74
2021/03/20 12:34:06;;;;;;;4.85;3.50;;;2.50;99.90;;;;;;5085399;28;20031;-74
2021/03/20 12:36:41;;;;;;;7.10;4.30;;;2.70;99.90;;;;;;5094195;28;20029;-74
2021/03/20 12:39:17;;;;;;;5.63;4.00;;;2.80;99.90;;;;;;5075510;28;20028;-74
2021/03/20 12:41:44;;;;;;;5.60;4.17;;;2.70;99.90;;;;;;5094792;28;20107;-78
2021/03/20 12:44:25;;;;;;;5.47;4.43;;;2.30;99.90;;;;;;5095366;28;20042;-73
2021/03/20 12:46:54;;;;;;;4.73;4.23;;;2.00;99.90;;;;;;5095613;28;20016;-73
2021/03/20 12:49:22;;;;;;;8.37;5.37;;;1.80;99.90;;;;;;5069442;28;20115;-86
2021/03/20 12:51:50;;;;;;;7.00;4.53;;;1.50;99.90;;;;;;5088759;28;20155;-75
2021/03/20 12:54:25;;;;;;;6.23;4.77;;;1.10;99.90;;;;;;5093489;28;20031;-78
2021/03/20 12:56:51;;;;;;;;;;;0.90;99.90;;;;;;5076439;28;20027;-74
2021/03/20 12:59:16;;;;;;;6.47;4.50;;;0.70;99.90;;;;;;5095368;28;20061;-73
2021/03/20 13:01:42;;;;;;;4.80;4.30;;;0.60;99.90;;;;;;5093228;28;20016;-73
2021/03/20 13:04:12;;;;;;;5.50;4.30;;;0.60;99.90;;;;;;5095524;28;20123;-73
2021/03/20 13:06:38;;;;;;;5.90;5.07;;;0.50;99.90;;;;;;5093117;28;20027;-73
2021/03/20 13:09:04;;;;;;;7.53;5.37;;;0.60;99.90;;;;;;5095607;28;20024;-73
2021/03/20 13:11:30;;;;;;;7.27;4.97;;;0.70;99.90;;;;;;5095334;28;20024;-73
2021/03/20 13:13:55;;;;;;;6.63;4.30;;;0.90;99.90;;;;;;5077152;28;20035;-73
2021/03/20 13:16:21;;;;;;;5.17;4.10;;;0.90;99.90;;;;;;5095571;28;20031;-73
2021/03/20 13:18:47;;;;;;;7.90;4.10;;;1.00;99.90;;;;;;5094957;28;20024;-72
2021/03/20 13:21:16;;;;;;;6.60;4.03;;;1.20;99.90;;;;;;5094714;28;20024;-72
2021/03/20 13:23:42;;;;;;;5.50;4.37;;;1.30;99.90;;;;;;5068326;28;20019;-72
2021/03/20 13:26:08;;;;;;;6.07;4.03;;;1.40;99.90;;;;;;5090644;28;20069;-77
2021/03/20 13:28:33;;;;;;;6.37;4.33;;;1.60;99.90;;;;;;5089759;28;20024;-72